sensor_id;sensor_type;location;lat;lon;timestamp;temperature;humidity
70214;DHT22;60138;55.808;37.078;2022-08-19T00:01:25;20.31;47.50
70214;DHT22;60138;55.808;37.078;2022-08-19T00:03:51;20.36;47.44
70214;DHT22;60138;55.808;37.078;2022-08-19T00:06:17;20.42;47.75
70214;DHT22;60138;55.808;37.078;2022-08-19T00:08:43;20.45;47.71
70214;DHT22;60138;55.808;37.078;2022-08-19T00:11:09;20.49;47.66
70214;DHT22;60138;55.808;37.078;2022-08-19T00:13:35;20.54;48.00
70214;DHT22;60138;55.808;37.078;2022-08-19T00:16:01;20.57;48.09
70214;DHT22;60138;55.808;37.078;2022-08-19T00:18:27;20.60;48.18
70214;DHT22;60138;55.808;37.078;2022-08-19T00:20:53;20.63;47.99
70214;DHT22;60138;55.808;37.078;2022-08-19T00:23:19;20.68;48.03
70214;DHT22;60138;55.808;37.078;2022-08-19T00:25:45;20.69;47.84
70214;DHT22;60138;55.808;37.078;2022-08-19T00:28:11;20.70;47.53
70214;DHT22;60138;55.808;37.078;2022-08-19T00:30:37;20.72;46.99
70214;DHT22;60138;55.808;37.078;2022-08-19T00:33:03;20.73;47.10
70214;DHT22;60138;55.808;37.078;2022-08-19T00:35:29;20.74;47.07
70214;DHT22;60138;55.808;37.078;2022-08-19T00:37:55;20.73;46.95
70214;DHT22;60138;55.808;37.078;2022-08-19T00:40:21;20.74;47.18
70214;DHT22;60138;55.808;37.078;2022-08-19T00:42:47;20.75;46.86
70214;DHT22;60138;55.808;37.078;2022-08-19T00:45:18;20.71;47.04
70214;DHT22;60138;55.808;37.078;2022-08-19T00:47:44;20.71;46.96
70214;DHT22;60138;55.808;37.078;2022-08-19T00:50:13;20.70;47.16
70214;DHT22;60138;55.808;37.078;2022-08-19T00:52:43;20.68;47.41
70214;DHT22;60138;55.808;37.078;2022-08-19T00:55:24;20.68;47.60
70214;DHT22;60138;55.808;37.078;2022-08-19T00:57:58;20.64;48.24
70214;DHT22;60138;55.808;37.078;2022-08-19T01:00:26;20.63;48.26
70214;DHT22;60138;55.808;37.078;2022-08-19T01:02:53;20.59;47.97
70214;DHT22;60138;55.808;37.078;2022-08-19T01:05:27;20.54;48.58
70214;DHT22;60138;55.808;37.078;2022-08-19T01:07:59;20.51;48.41
70214;DHT22;60138;55.808;37.078;2022-08-19T01:10:29;20.47;48.20
70214;DHT22;60138;55.808;37.078;2022-08-19T01:12:58;20.41;48.19
70214;DHT22;60138;55.808;37.078;2022-08-19T01:15:30;20.35;48.27
70214;DHT22;60138;55.808;37.078;2022-08-19T01:18:00;20.29;48.70
70214;DHT22;60138;55.808;37.078;2022-08-19T01:20:27;20.21;48.74
70214;DHT22;60138;55.808;37.078;2022-08-19T01:22:55;20.15;48.96
70214;DHT22;60138;55.808;37.078;2022-08-19T01:25:26;20.09;48.99
70214;DHT22;60138;55.808;37.078;2022-08-19T01:27:53;20.04;49.05
70214;DHT22;60138;55.808;37.078;2022-08-19T01:30:26;20.01;49.70
70214;DHT22;60138;55.808;37.078;2022-08-19T01:32:53;19.98;49.27
70214;DHT22;60138;55.808;37.078;2022-08-19T01:35:20;19.98;49.30
70214;DHT22;60138;55.808;37.078;2022-08-19T01:38:08;19.95;50.17
70214;DHT22;60138;55.808;37.078;2022-08-19T01:40:36;19.92;50.07
70214;DHT22;60138;55.808;37.078;2022-08-19T01:43:02;19.90;49.45
70214;DHT22;60138;55.808;37.078;2022-08-19T01:45:31;19.85;49.59
70214;DHT22;60138;55.808;37.078;2022-08-19T01:47:58;19.79;49.92
70214;DHT22;60138;55.808;37.078;2022-08-19T01:50:24;19.73;49.77
70214;DHT22;60138;55.808;37.078;2022-08-19T01:52:50;19.66;49.95
70214;DHT22;60138;55.808;37.078;2022-08-19T01:55:19;19.58;50.08
70214;DHT22;60138;55.808;37.078;2022-08-19T01:57:48;19.51;49.99
70214;DHT22;60138;55.808;37.078;2022-08-19T02:00:17;19.42;50.37
70214;DHT22;60138;55.808;37.078;2022-08-19T02:02:43;19.35;50.12
70214;DHT22;60138;55.808;37.078;2022-08-19T02:05:10;19.28;50.47
70214;DHT22;60138;55.808;37.078;2022-08-19T02:07:38;19.22;50.64
70214;DHT22;60138;55.808;37.078;2022-08-19T02:10:07;19.18;51.17
70214;DHT22;60138;55.808;37.078;2022-08-19T02:12:33;19.18;50.47
70214;DHT22;60138;55.808;37.078;2022-08-19T02:14:59;19.21;50.88
70214;DHT22;60138;55.808;37.078;2022-08-19T02:17:25;19.22;49.94
70214;DHT22;60138;55.808;37.078;2022-08-19T02:19:51;19.21;51.11
70214;DHT22;60138;55.808;37.078;2022-08-19T02:22:17;19.17;50.69
70214;DHT22;60138;55.808;37.078;2022-08-19T02:24:42;19.13;51.03
70214;DHT22;60138;55.808;37.078;2022-08-19T02:27:08;19.09;51.25
70214;DHT22;60138;55.808;37.078;2022-08-19T02:29:34;19.05;52.51
70214;DHT22;60138;55.808;37.078;2022-08-19T02:32:00;18.99;51.09
70214;DHT22;60138;55.808;37.078;2022-08-19T02:34:25;18.97;50.86
70214;DHT22;60138;55.808;37.078;2022-08-19T02:36:51;18.96;52.04
70214;DHT22;60138;55.808;37.078;2022-08-19T02:39:18;18.96;51.27
70214;DHT22;60138;55.808;37.078;2022-08-19T02:41:44;18.97;51.50
70214;DHT22;60138;55.808;37.078;2022-08-19T02:44:09;19.05;51.15
70214;DHT22;60138;55.808;37.078;2022-08-19T02:46:35;19.10;51.62
70214;DHT22;60138;55.808;37.078;2022-08-19T02:49:05;19.13;54.07
70214;DHT22;60138;55.808;37.078;2022-08-19T02:51:33;19.18;50.91
70214;DHT22;60138;55.808;37.078;2022-08-19T02:53:59;19.23;51.81
70214;DHT22;60138;55.808;37.078;2022-08-19T02:56:26;19.26;51.19
70214;DHT22;60138;55.808;37.078;2022-08-19T02:58:51;19.31;50.50
70214;DHT22;60138;55.808;37.078;2022-08-19T03:01:29;19.37;51.82
70214;DHT22;60138;55.808;37.078;2022-08-19T03:03:56;19.38;50.68
70214;DHT22;60138;55.808;37.078;2022-08-19T03:06:23;19.39;51.78
70214;DHT22;60138;55.808;37.078;2022-08-19T03:08:49;19.44;51.85
70214;DHT22;60138;55.808;37.078;2022-08-19T03:11:29;19.47;52.78
70214;DHT22;60138;55.808;37.078;2022-08-19T03:13:56;19.50;51.57
70214;DHT22;60138;55.808;37.078;2022-08-19T03:16:26;19.53;51.87
70214;DHT22;60138;55.808;37.078;2022-08-19T03:18:53;19.54;51.18
70214;DHT22;60138;55.808;37.078;2022-08-19T03:21:22;19.55;51.82
70214;DHT22;60138;55.808;37.078;2022-08-19T03:23:48;19.56;51.63
70214;DHT22;60138;55.808;37.078;2022-08-19T03:26:14;19.58;51.49
70214;DHT22;60138;55.808;37.078;2022-08-19T03:28:41;19.58;51.15
70214;DHT22;60138;55.808;37.078;2022-08-19T03:31:12;19.57;51.52
70214;DHT22;60138;55.808;37.078;2022-08-19T03:33:38;19.56;51.42
70214;DHT22;60138;55.808;37.078;2022-08-19T03:36:17;19.55;51.52
70214;DHT22;60138;55.808;37.078;2022-08-19T03:38:45;19.53;51.69
70214;DHT22;60138;55.808;37.078;2022-08-19T03:41:13;19.53;51.82
70214;DHT22;60138;55.808;37.078;2022-08-19T03:43:40;19.54;51.66
70214;DHT22;60138;55.808;37.078;2022-08-19T03:46:10;19.55;51.70
70214;DHT22;60138;55.808;37.078;2022-08-19T03:48:38;19.56;52.07
70214;DHT22;60138;55.808;37.078;2022-08-19T03:51:05;19.57;52.14
70214;DHT22;60138;55.808;37.078;2022-08-19T03:53:33;19.61;51.96
70214;DHT22;60138;55.808;37.078;2022-08-19T03:55:59;19.65;52.11
70214;DHT22;60138;55.808;37.078;2022-08-19T03:58:26;19.69;51.72
70214;DHT22;60138;55.808;37.078;2022-08-19T04:00:52;19.71;51.34
70214;DHT22;60138;55.808;37.078;2022-08-19T04:03:17;19.72;51.59
70214;DHT22;60138;55.808;37.078;2022-08-19T04:05:43;19.73;51.55
70214;DHT22;60138;55.808;37.078;2022-08-19T04:08:09;19.74;51.48
70214;DHT22;60138;55.808;37.078;2022-08-19T04:10:36;19.76;51.72
70214;DHT22;60138;55.808;37.078;2022-08-19T04:13:04;19.81;51.51
70214;DHT22;60138;55.808;37.078;2022-08-19T04:15:30;19.87;51.49
70214;DHT22;60138;55.808;37.078;2022-08-19T04:17:55;19.95;50.72
70214;DHT22;60138;55.808;37.078;2022-08-19T04:20:21;20.02;50.65
70214;DHT22;60138;55.808;37.078;2022-08-19T04:22:47;20.11;51.39
70214;DHT22;60138;55.808;37.078;2022-08-19T04:25:13;20.22;50.70
70214;DHT22;60138;55.808;37.078;2022-08-19T04:27:38;20.27;50.62
70214;DHT22;60138;55.808;37.078;2022-08-19T04:30:05;20.34;50.53
70214;DHT22;60138;55.808;37.078;2022-08-19T04:32:31;20.42;50.80
70214;DHT22;60138;55.808;37.078;2022-08-19T04:34:56;20.49;50.14
70214;DHT22;60138;55.808;37.078;2022-08-19T04:37:22;20.55;50.61
70214;DHT22;60138;55.808;37.078;2022-08-19T04:39:48;20.59;50.55
70214;DHT22;60138;55.808;37.078;2022-08-19T04:42:15;20.63;50.64
70214;DHT22;60138;55.808;37.078;2022-08-19T04:44:41;20.69;50.27
70214;DHT22;60138;55.808;37.078;2022-08-19T04:47:07;20.76;49.80
70214;DHT22;60138;55.808;37.078;2022-08-19T04:49:33;20.83;50.49
70214;DHT22;60138;55.808;37.078;2022-08-19T04:51:59;20.87;50.30
70214;DHT22;60138;55.808;37.078;2022-08-19T04:54:26;20.91;50.43
70214;DHT22;60138;55.808;37.078;2022-08-19T04:56:52;20.95;50.20
70214;DHT22;60138;55.808;37.078;2022-08-19T04:59:19;21.00;50.33
70214;DHT22;60138;55.808;37.078;2022-08-19T05:01:46;21.05;50.36
70214;DHT22;60138;55.808;37.078;2022-08-19T05:04:12;21.13;51.27
70214;DHT22;60138;55.808;37.078;2022-08-19T05:06:39;21.21;50.01
70214;DHT22;60138;55.808;37.078;2022-08-19T05:09:05;21.31;50.03
70214;DHT22;60138;55.808;37.078;2022-08-19T05:11:35;21.44;49.91
70214;DHT22;60138;55.808;37.078;2022-08-19T05:14:01;21.60;49.37
70214;DHT22;60138;55.808;37.078;2022-08-19T05:16:27;21.74;49.21
70214;DHT22;60138;55.808;37.078;2022-08-19T05:18:54;21.89;48.89
70214;DHT22;60138;55.808;37.078;2022-08-19T05:21:20;21.98;48.89
70214;DHT22;60138;55.808;37.078;2022-08-19T05:23:46;22.06;48.75
70214;DHT22;60138;55.808;37.078;2022-08-19T05:26:12;22.13;48.29
70214;DHT22;60138;55.808;37.078;2022-08-19T05:28:38;22.20;48.36
70214;DHT22;60138;55.808;37.078;2022-08-19T05:31:03;22.25;48.24
70214;DHT22;60138;55.808;37.078;2022-08-19T05:33:29;22.34;48.04
70214;DHT22;60138;55.808;37.078;2022-08-19T05:35:55;22.43;46.70
70214;DHT22;60138;55.808;37.078;2022-08-19T05:38:21;22.53;47.76
70214;DHT22;60138;55.808;37.078;2022-08-19T05:40:47;22.64;47.61
70214;DHT22;60138;55.808;37.078;2022-08-19T05:43:13;22.75;47.31
70214;DHT22;60138;55.808;37.078;2022-08-19T05:45:40;22.85;46.83
70214;DHT22;60138;55.808;37.078;2022-08-19T05:48:06;22.92;46.86
70214;DHT22;60138;55.808;37.078;2022-08-19T05:50:31;23.01;47.01
70214;DHT22;60138;55.808;37.078;2022-08-19T05:52:57;23.06;46.81
70214;DHT22;60138;55.808;37.078;2022-08-19T05:55:23;23.07;46.68
70214;DHT22;60138;55.808;37.078;2022-08-19T05:57:48;23.10;46.64
70214;DHT22;60138;55.808;37.078;2022-08-19T06:00:15;23.12;46.64
70214;DHT22;60138;55.808;37.078;2022-08-19T06:02:41;23.14;46.30
70214;DHT22;60138;55.808;37.078;2022-08-19T06:05:07;23.13;46.33
70214;DHT22;60138;55.808;37.078;2022-08-19T06:07:33;23.08;46.07
70214;DHT22;60138;55.808;37.078;2022-08-19T06:09:59;23.05;46.41
70214;DHT22;60138;55.808;37.078;2022-08-19T06:12:25;23.01;46.39
70214;DHT22;60138;55.808;37.078;2022-08-19T06:14:50;23.03;46.24
70214;DHT22;60138;55.808;37.078;2022-08-19T06:17:16;23.09;46.22
70214;DHT22;60138;55.808;37.078;2022-08-19T06:19:42;23.16;46.27
70214;DHT22;60138;55.808;37.078;2022-08-19T06:22:08;23.25;46.23
70214;DHT22;60138;55.808;37.078;2022-08-19T06:24:33;23.34;46.24
70214;DHT22;60138;55.808;37.078;2022-08-19T06:27:00;23.41;45.93
70214;DHT22;60138;55.808;37.078;2022-08-19T06:29:28;23.50;45.92
70214;DHT22;60138;55.808;37.078;2022-08-19T06:31:55;23.56;45.93
70214;DHT22;60138;55.808;37.078;2022-08-19T06:34:22;23.62;45.57
70214;DHT22;60138;55.808;37.078;2022-08-19T06:36:50;23.72;45.48
70214;DHT22;60138;55.808;37.078;2022-08-19T06:39:21;23.83;45.31
70214;DHT22;60138;55.808;37.078;2022-08-19T06:41:49;23.89;45.36
70214;DHT22;60138;55.808;37.078;2022-08-19T06:44:18;23.99;45.12
70214;DHT22;60138;55.808;37.078;2022-08-19T06:46:44;24.09;45.14
70214;DHT22;60138;55.808;37.078;2022-08-19T06:49:10;24.14;44.80
70214;DHT22;60138;55.808;37.078;2022-08-19T06:51:36;24.18;44.68
70214;DHT22;60138;55.808;37.078;2022-08-19T06:54:02;24.27;44.77
70214;DHT22;60138;55.808;37.078;2022-08-19T06:56:30;24.35;44.74
70214;DHT22;60138;55.808;37.078;2022-08-19T06:58:57;24.44;44.63
70214;DHT22;60138;55.808;37.078;2022-08-19T07:01:23;24.46;44.41
70214;DHT22;60138;55.808;37.078;2022-08-19T07:03:49;24.54;44.33
70214;DHT22;60138;55.808;37.078;2022-08-19T07:06:17;24.57;44.72
70214;DHT22;60138;55.808;37.078;2022-08-19T07:08:45;24.62;44.68
70214;DHT22;60138;55.808;37.078;2022-08-19T07:11:13;24.64;44.60
70214;DHT22;60138;55.808;37.078;2022-08-19T07:13:39;24.63;44.26
70214;DHT22;60138;55.808;37.078;2022-08-19T07:16:12;24.61;44.58
70214;DHT22;60138;55.808;37.078;2022-08-19T07:18:39;24.66;44.61
70214;DHT22;60138;55.808;37.078;2022-08-19T07:21:06;24.73;44.06
70214;DHT22;60138;55.808;37.078;2022-08-19T07:23:33;24.71;44.26
70214;DHT22;60138;55.808;37.078;2022-08-19T07:26:15;24.75;44.51
70214;DHT22;60138;55.808;37.078;2022-08-19T07:28:41;24.84;44.46
70214;DHT22;60138;55.808;37.078;2022-08-19T07:31:09;24.91;44.43
70214;DHT22;60138;55.808;37.078;2022-08-19T07:33:35;24.98;44.57
70214;DHT22;60138;55.808;37.078;2022-08-19T07:36:00;25.04;44.24
70214;DHT22;60138;55.808;37.078;2022-08-19T07:38:26;25.12;43.93
70214;DHT22;60138;55.808;37.078;2022-08-19T07:40:52;25.22;44.19
70214;DHT22;60138;55.808;37.078;2022-08-19T07:43:18;25.37;44.04
70214;DHT22;60138;55.808;37.078;2022-08-19T07:45:44;25.53;43.82
70214;DHT22;60138;55.808;37.078;2022-08-19T07:48:10;25.62;43.76
70214;DHT22;60138;55.808;37.078;2022-08-19T07:50:35;25.73;43.39
70214;DHT22;60138;55.808;37.078;2022-08-19T07:53:01;25.86;43.29
70214;DHT22;60138;55.808;37.078;2022-08-19T07:55:27;25.97;42.81
70214;DHT22;60138;55.808;37.078;2022-08-19T07:57:53;26.05;42.72
70214;DHT22;60138;55.808;37.078;2022-08-19T08:00:19;26.18;42.67
70214;DHT22;60138;55.808;37.078;2022-08-19T08:02:45;26.30;42.49
70214;DHT22;60138;55.808;37.078;2022-08-19T08:05:10;26.37;42.32
70214;DHT22;60138;55.808;37.078;2022-08-19T08:07:36;26.46;42.36
70214;DHT22;60138;55.808;37.078;2022-08-19T08:10:05;26.54;42.23
70214;DHT22;60138;55.808;37.078;2022-08-19T08:12:35;26.63;41.76
70214;DHT22;60138;55.808;37.078;2022-08-19T08:15:06;26.69;41.54
70214;DHT22;60138;55.808;37.078;2022-08-19T08:17:33;26.77;41.68
70214;DHT22;60138;55.808;37.078;2022-08-19T08:19:58;26.85;41.81
70214;DHT22;60138;55.808;37.078;2022-08-19T08:22:24;26.83;41.16
70214;DHT22;60138;55.808;37.078;2022-08-19T08:24:50;26.83;41.32
70214;DHT22;60138;55.808;37.078;2022-08-19T08:27:15;26.86;41.55
70214;DHT22;60138;55.808;37.078;2022-08-19T08:29:41;26.85;41.43
70214;DHT22;60138;55.808;37.078;2022-08-19T08:32:07;26.90;41.58
70214;DHT22;60138;55.808;37.078;2022-08-19T08:34:32;26.97;41.40
70214;DHT22;60138;55.808;37.078;2022-08-19T08:36:58;27.02;40.57
70214;DHT22;60138;55.808;37.078;2022-08-19T08:39:24;27.06;40.08
70214;DHT22;60138;55.808;37.078;2022-08-19T08:42:07;27.09;39.26
70214;DHT22;60138;55.808;37.078;2022-08-19T08:47:12;27.09;38.85
70214;DHT22;60138;55.808;37.078;2022-08-19T08:52:19;27.07;37.50
70214;DHT22;60138;55.808;37.078;2022-08-19T08:54:48;27.09;37.66
70214;DHT22;60138;55.808;37.078;2022-08-19T08:57:19;27.06;37.51
70214;DHT22;60138;55.808;37.078;2022-08-19T08:59:48;26.96;36.44
70214;DHT22;60138;55.808;37.078;2022-08-19T09:02:17;26.89;37.02
70214;DHT22;60138;55.808;37.078;2022-08-19T09:04:43;26.82;37.46
70214;DHT22;60138;55.808;37.078;2022-08-19T09:09:49;26.75;36.98
70214;DHT22;60138;55.808;37.078;2022-08-19T09:12:28;26.70;37.05
70214;DHT22;60138;55.808;37.078;2022-08-19T09:15:03;26.70;37.75
70214;DHT22;60138;55.808;37.078;2022-08-19T09:17:30;26.73;37.79
70214;DHT22;60138;55.808;37.078;2022-08-19T09:22:41;26.92;38.11
70214;DHT22;60138;55.808;37.078;2022-08-19T09:25:09;27.02;37.21
70214;DHT22;60138;55.808;37.078;2022-08-19T09:27:37;27.16;35.79
70214;DHT22;60138;55.808;37.078;2022-08-19T09:30:05;27.32;37.50
70214;DHT22;60138;55.808;37.078;2022-08-19T09:32:31;27.56;37.49
70214;DHT22;60138;55.808;37.078;2022-08-19T09:34:57;27.78;37.23
70214;DHT22;60138;55.808;37.078;2022-08-19T09:37:24;27.88;35.34
70214;DHT22;60138;55.808;37.078;2022-08-19T09:39:50;28.00;34.82
70214;DHT22;60138;55.808;37.078;2022-08-19T09:42:16;28.11;35.63
70214;DHT22;60138;55.808;37.078;2022-08-19T09:44:43;28.24;35.01
70214;DHT22;60138;55.808;37.078;2022-08-19T09:47:10;28.21;34.65
70214;DHT22;60138;55.808;37.078;2022-08-19T09:49:36;28.14;35.26
70214;DHT22;60138;55.808;37.078;2022-08-19T09:52:02;28.04;35.28
70214;DHT22;60138;55.808;37.078;2022-08-19T09:54:28;27.94;34.53
70214;DHT22;60138;55.808;37.078;2022-08-19T09:56:55;27.87;35.50
70214;DHT22;60138;55.808;37.078;2022-08-19T09:59:21;27.90;35.56
70214;DHT22;60138;55.808;37.078;2022-08-19T10:01:47;27.91;35.79
70214;DHT22;60138;55.808;37.078;2022-08-19T10:04:13;27.94;35.30
70214;DHT22;60138;55.808;37.078;2022-08-19T10:06:42;27.96;35.59
70214;DHT22;60138;55.808;37.078;2022-08-19T10:09:09;27.98;35.55
70214;DHT22;60138;55.808;37.078;2022-08-19T10:11:36;28.02;34.98
70214;DHT22;60138;55.808;37.078;2022-08-19T10:14:05;28.06;35.50
70214;DHT22;60138;55.808;37.078;2022-08-19T10:16:32;28.05;33.18
70214;DHT22;60138;55.808;37.078;2022-08-19T10:18:58;28.00;35.05
70214;DHT22;60138;55.808;37.078;2022-08-19T10:21:27;27.97;32.96
70214;DHT22;60138;55.808;37.078;2022-08-19T10:23:56;27.95;33.62
70214;DHT22;60138;55.808;37.078;2022-08-19T10:26:29;27.98;32.64
70214;DHT22;60138;55.808;37.078;2022-08-19T10:28:56;27.99;34.36
70214;DHT22;60138;55.808;37.078;2022-08-19T10:31:31;27.99;32.28
70214;DHT22;60138;55.808;37.078;2022-08-19T10:33:58;28.01;32.83
70214;DHT22;60138;55.808;37.078;2022-08-19T10:36:31;28.04;33.86
70214;DHT22;60138;55.808;37.078;2022-08-19T10:38:59;28.06;33.06
70214;DHT22;60138;55.808;37.078;2022-08-19T10:41:28;28.10;33.54
70214;DHT22;60138;55.808;37.078;2022-08-19T10:44:03;28.15;33.47
70214;DHT22;60138;55.808;37.078;2022-08-19T10:46:29;28.15;32.57
70214;DHT22;60138;55.808;37.078;2022-08-19T10:48:55;28.23;32.09
70214;DHT22;60138;55.808;37.078;2022-08-19T10:51:21;28.26;31.48
70214;DHT22;60138;55.808;37.078;2022-08-19T10:53:47;28.31;32.89
70214;DHT22;60138;55.808;37.078;2022-08-19T10:56:13;28.39;32.06
70214;DHT22;60138;55.808;37.078;2022-08-19T10:58:39;28.46;31.30
70214;DHT22;60138;55.808;37.078;2022-08-19T11:01:04;28.50;31.63
70214;DHT22;60138;55.808;37.078;2022-08-19T11:03:30;28.49;32.28
70214;DHT22;60138;55.808;37.078;2022-08-19T11:06:06;28.53;31.64
70214;DHT22;60138;55.808;37.078;2022-08-19T11:08:33;28.56;32.15
70214;DHT22;60138;55.808;37.078;2022-08-19T11:11:01;28.65;31.73
70214;DHT22;60138;55.808;37.078;2022-08-19T11:13:28;28.60;29.59
70214;DHT22;60138;55.808;37.078;2022-08-19T11:16:00;28.53;30.51
70214;DHT22;60138;55.808;37.078;2022-08-19T11:18:27;28.42;30.81
70214;DHT22;60138;55.808;37.078;2022-08-19T11:20:53;28.34;30.54
70214;DHT22;60138;55.808;37.078;2022-08-19T11:23:19;28.31;30.87
70214;DHT22;60138;55.808;37.078;2022-08-19T11:25:45;28.32;32.32
70214;DHT22;60138;55.808;37.078;2022-08-19T11:28:12;28.30;32.15
70214;DHT22;60138;55.808;37.078;2022-08-19T11:30:39;28.28;30.78
70214;DHT22;60138;55.808;37.078;2022-08-19T11:33:04;28.27;32.32
70214;DHT22;60138;55.808;37.078;2022-08-19T11:35:30;28.31;28.96
70214;DHT22;60138;55.808;37.078;2022-08-19T11:37:56;28.35;29.11
70214;DHT22;60138;55.808;37.078;2022-08-19T11:40:22;28.37;27.92
70214;DHT22;60138;55.808;37.078;2022-08-19T11:42:47;28.42;28.77
70214;DHT22;60138;55.808;37.078;2022-08-19T11:45:13;28.48;29.52
70214;DHT22;60138;55.808;37.078;2022-08-19T11:47:39;29.02;28.97
70214;DHT22;60138;55.808;37.078;2022-08-19T11:50:05;29.77;24.76
70214;DHT22;60138;55.808;37.078;2022-08-19T11:52:31;30.34;25.50
70214;DHT22;60138;55.808;37.078;2022-08-19T11:54:56;30.77;21.44
70214;DHT22;60138;55.808;37.078;2022-08-19T11:57:22;31.11;20.47
70214;DHT22;60138;55.808;37.078;2022-08-19T11:59:52;31.75;24.54
70214;DHT22;60138;55.808;37.078;2022-08-19T12:02:18;32.47;24.65
70214;DHT22;60138;55.808;37.078;2022-08-19T12:04:44;32.85;24.89
70214;DHT22;60138;55.808;37.078;2022-08-19T12:07:10;33.12;23.32
70214;DHT22;60138;55.808;37.078;2022-08-19T12:09:36;33.22;19.95
70214;DHT22;60138;55.808;37.078;2022-08-19T12:12:02;33.14;22.44
70214;DHT22;60138;55.808;37.078;2022-08-19T12:14:28;33.09;19.91
70214;DHT22;60138;55.808;37.078;2022-08-19T12:16:54;33.08;21.27
70214;DHT22;60138;55.808;37.078;2022-08-19T12:19:20;33.27;24.32
70214;DHT22;60138;55.808;37.078;2022-08-19T12:21:45;33.59;20.73
70214;DHT22;60138;55.808;37.078;2022-08-19T12:24:11;33.99;21.38
70214;DHT22;60138;55.808;37.078;2022-08-19T12:26:37;34.30;23.52
70214;DHT22;60138;55.808;37.078;2022-08-19T12:29:03;34.54;20.87
70214;DHT22;60138;55.808;37.078;2022-08-19T12:31:29;35.26;22.42
70214;DHT22;60138;55.808;37.078;2022-08-19T12:33:55;35.97;19.73
70214;DHT22;60138;55.808;37.078;2022-08-19T12:36:21;36.19;20.92
70214;DHT22;60138;55.808;37.078;2022-08-19T12:38:46;36.41;18.28
70214;DHT22;60138;55.808;37.078;2022-08-19T12:41:14;36.55;21.62
70214;DHT22;60138;55.808;37.078;2022-08-19T12:43:40;36.89;18.99
70214;DHT22;60138;55.808;37.078;2022-08-19T12:46:07;37.30;21.44
70214;DHT22;60138;55.808;37.078;2022-08-19T12:48:33;37.61;19.34
70214;DHT22;60138;55.808;37.078;2022-08-19T12:50:59;37.87;16.81
70214;DHT22;60138;55.808;37.078;2022-08-19T12:53:25;38.30;20.14
70214;DHT22;60138;55.808;37.078;2022-08-19T12:55:55;38.77;15.68
70214;DHT22;60138;55.808;37.078;2022-08-19T12:58:21;39.10;15.76
70214;DHT22;60138;55.808;37.078;2022-08-19T13:00:47;39.08;17.19
70214;DHT22;60138;55.808;37.078;2022-08-19T13:03:13;39.23;18.50
70214;DHT22;60138;55.808;37.078;2022-08-19T13:05:38;39.29;19.41
70214;DHT22;60138;55.808;37.078;2022-08-19T13:08:04;39.30;17.05
70214;DHT22;60138;55.808;37.078;2022-08-19T13:10:33;39.23;18.40
70214;DHT22;60138;55.808;37.078;2022-08-19T13:13:00;39.15;17.96
70214;DHT22;60138;55.808;37.078;2022-08-19T13:15:26;39.06;17.90
70214;DHT22;60138;55.808;37.078;2022-08-19T13:17:53;38.97;19.66
70214;DHT22;60138;55.808;37.078;2022-08-19T13:20:20;38.88;18.29
70214;DHT22;60138;55.808;37.078;2022-08-19T13:22:47;38.55;20.09
70214;DHT22;60138;55.808;37.078;2022-08-19T13:25:13;38.20;21.03
70214;DHT22;60138;55.808;37.078;2022-08-19T13:27:40;37.82;21.20
70214;DHT22;60138;55.808;37.078;2022-08-19T13:30:08;37.63;20.05
70214;DHT22;60138;55.808;37.078;2022-08-19T13:32:35;37.43;20.48
70214;DHT22;60138;55.808;37.078;2022-08-19T13:35:01;37.29;20.38
70214;DHT22;60138;55.808;37.078;2022-08-19T13:37:28;37.35;19.14
70214;DHT22;60138;55.808;37.078;2022-08-19T13:39:54;36.47;20.81
70214;DHT22;60138;55.808;37.078;2022-08-19T13:42:20;36.42;19.89
70214;DHT22;60138;55.808;37.078;2022-08-19T13:44:46;35.83;19.15
70214;DHT22;60138;55.808;37.078;2022-08-19T13:47:11;34.89;20.15
70214;DHT22;60138;55.808;37.078;2022-08-19T13:49:37;34.76;21.22
70214;DHT22;60138;55.808;37.078;2022-08-19T13:52:04;34.80;22.00
70214;DHT22;60138;55.808;37.078;2022-08-19T13:54:30;34.75;19.86
70214;DHT22;60138;55.808;37.078;2022-08-19T13:56:56;34.15;20.92
70214;DHT22;60138;55.808;37.078;2022-08-19T13:59:22;33.45;21.73
70214;DHT22;60138;55.808;37.078;2022-08-19T14:01:47;33.01;21.93
70214;DHT22;60138;55.808;37.078;2022-08-19T14:04:13;32.63;22.13
70214;DHT22;60138;55.808;37.078;2022-08-19T14:06:39;32.20;23.31
70214;DHT22;60138;55.808;37.078;2022-08-19T14:09:05;31.89;23.97
70214;DHT22;60138;55.808;37.078;2022-08-19T14:11:31;31.54;23.73
70214;DHT22;60138;55.808;37.078;2022-08-19T14:13:57;31.21;24.46
70214;DHT22;60138;55.808;37.078;2022-08-19T14:16:22;30.96;24.67
70214;DHT22;60138;55.808;37.078;2022-08-19T14:18:48;30.72;24.91
70214;DHT22;60138;55.808;37.078;2022-08-19T14:21:17;30.50;25.29
70214;DHT22;60138;55.808;37.078;2022-08-19T14:23:43;30.31;25.58
70214;DHT22;60138;55.808;37.078;2022-08-19T14:26:11;30.11;25.88
70214;DHT22;60138;55.808;37.078;2022-08-19T14:28:38;29.95;26.19
70214;DHT22;60138;55.808;37.078;2022-08-19T14:31:04;29.78;26.23
70214;DHT22;60138;55.808;37.078;2022-08-19T14:33:30;29.62;26.46
70214;DHT22;60138;55.808;37.078;2022-08-19T14:35:56;29.49;26.70
70214;DHT22;60138;55.808;37.078;2022-08-19T14:38:21;29.41;26.84
70214;DHT22;60138;55.808;37.078;2022-08-19T14:40:47;29.29;27.05
70214;DHT22;60138;55.808;37.078;2022-08-19T14:43:13;29.18;27.18
70214;DHT22;60138;55.808;37.078;2022-08-19T14:45:39;29.15;27.41
70214;DHT22;60138;55.808;37.078;2022-08-19T14:48:06;29.06;27.43
70214;DHT22;60138;55.808;37.078;2022-08-19T14:50:33;28.99;27.56
70214;DHT22;60138;55.808;37.078;2022-08-19T14:53:05;28.90;27.72
70214;DHT22;60138;55.808;37.078;2022-08-19T14:55:32;28.84;27.83
70214;DHT22;60138;55.808;37.078;2022-08-19T14:57:58;28.76;27.92
70214;DHT22;60138;55.808;37.078;2022-08-19T15:00:24;28.72;28.13
70214;DHT22;60138;55.808;37.078;2022-08-19T15:02:50;28.72;28.20
70214;DHT22;60138;55.808;37.078;2022-08-19T15:05:16;28.74;28.32
70214;DHT22;60138;55.808;37.078;2022-08-19T15:07:42;28.76;28.36
70214;DHT22;60138;55.808;37.078;2022-08-19T15:10:11;28.78;28.40
70214;DHT22;60138;55.808;37.078;2022-08-19T15:12:38;28.83;28.48
70214;DHT22;60138;55.808;37.078;2022-08-19T15:15:04;28.80;28.61
70214;DHT22;60138;55.808;37.078;2022-08-19T15:17:30;28.79;28.80
70214;DHT22;60138;55.808;37.078;2022-08-19T15:19:56;28.69;28.65
70214;DHT22;60138;55.808;37.078;2022-08-19T15:22:21;28.60;28.88
70214;DHT22;60138;55.808;37.078;2022-08-19T15:24:47;28.45;28.96